Time;durP1;ratioP1;P1;durP2;ratioP2;P2;SDS_P1;SDS_P2;PMS_P1;PMS_P2;Temp;Humidity;BMP_temperature;BMP_pressure;BME280_temperature;BME280_humidity;BME280_pressure;Samples;Min_cycle;Max_cycle;Signal;HPM_P1;HPM_P2
2022/11/20 00:01:25;;;;;;;4.13;2.30;;;2.40;99.90;;;;;;5020635;28;20205;-62
2022/11/20 00:03:53;;;;;;;4.00;2.80;;;2.40;99.90;;;;;;5019819;28;20675;-61
2022/11/20 00:06:21;;;;;;;5.73;3.00;;;2.50;99.90;;;;;;5022514;28;20212;-62
2022/11/20 00:08:48;;;;;;;5.30;3.63;;;2.50;99.90;;;;;;4993812;28;20209;-62
2022/11/20 00:11:17;;;;;;;5.07;3.13;;;2.40;99.90;;;;;;5021730;28;20204;-62
2022/11/20 00:13:44;;;;;;;5.90;4.03;;;2.40;99.90;;;;;;5019471;28;20201;-61
2022/11/20 00:16:13;;;;;;;5.37;3.60;;;2.40;99.90;;;;;;5013395;28;20201;-62
2022/11/20 00:18:42;;;;;;;7.70;3.37;;;2.40;99.90;;;;;;5017571;28;20615;-62
2022/11/20 00:21:12;;;;;;;5.43;3.80;;;2.40;99.90;;;;;;5008060;28;20209;-62
2022/11/20 00:23:39;;;;;;;4.70;3.53;;;2.40;99.90;;;;;;5003000;28;20212;-62
2022/11/20 00:26:07;;;;;;;4.73;3.40;;;2.40;99.90;;;;;;5026963;28;20197;-62
2022/11/20 00:28:35;;;;;;;5.27;3.73;;;2.40;99.90;;;;;;5015048;28;20197;-62
2022/11/20 00:31:03;;;;;;;5.37;3.53;;;2.50;99.90;;;;;;5027039;28;20201;-62
2022/11/20 00:33:31;;;;;;;7.60;4.03;;;2.60;99.90;;;;;;5018147;28;20224;-62
2022/11/20 00:36:02;;;;;;;5.00;3.77;;;2.50;99.90;;;;;;5011209;28;20208;-62
2022/11/20 00:38:29;;;;;;;7.10;4.00;;;2.50;99.90;;;;;;5004353;28;20283;-62
2022/11/20 00:40:57;;;;;;;6.00;4.27;;;2.50;99.90;;;;;;5028477;28;20215;-62
2022/11/20 00:43:24;;;;;;;7.10;4.90;;;2.50;99.90;;;;;;5023081;28;20196;-63
2022/11/20 00:45:51;;;;;;;5.57;4.43;;;2.50;99.90;;;;;;5026183;28;20204;-62
2022/11/20 00:48:18;;;;;;;6.67;4.20;;;2.50;99.90;;;;;;5032276;28;20212;-62
2022/11/20 00:50:44;;;;;;;7.77;4.43;;;2.50;99.90;;;;;;5010173;28;20208;-62
2022/11/20 00:53:12;;;;;;;7.40;4.93;;;2.50;99.90;;;;;;4991420;28;20223;-62
2022/11/20 00:55:39;;;;;;;9.03;6.13;;;2.50;99.90;;;;;;5031815;28;20653;-62
2022/11/20 00:58:06;;;;;;;10.03;5.30;;;2.40;99.90;;;;;;5034188;28;20849;-62
2022/11/20 01:00:33;;;;;;;10.17;6.43;;;2.40;99.90;;;;;;5022233;28;20196;-62
2022/11/20 01:03:00;;;;;;;8.43;6.00;;;2.40;99.90;;;;;;5030554;28;20204;-65
2022/11/20 01:05:26;;;;;;;8.77;6.50;;;2.40;99.90;;;;;;5003953;28;20200;-62
2022/11/20 01:07:53;;;;;;;9.80;6.60;;;2.40;99.90;;;;;;4983253;28;20818;-62
2022/11/20 01:10:21;;;;;;;16.23;10.23;;;2.40;99.90;;;;;;5025783;28;20210;-62
2022/11/20 01:13:36;;;;;;;20.03;11.80;;;2.40;99.90;;;;;;5022134;28;20575;-62
2022/11/20 01:15:36;;;;;;;16.30;11.40;;;2.40;99.90;;;;;;5009438;28;20228;-62
2022/11/20 01:18:03;;;;;;;16.87;9.87;;;2.70;99.90;;;;;;5034326;28;20716;-62
2022/11/20 01:20:30;;;;;;;14.47;9.10;;;2.40;99.90;;;;;;5025417;28;20209;-62
2022/11/20 01:22:57;;;;;;;14.60;8.73;;;2.30;99.90;;;;;;5010865;28;20204;-62
2022/11/20 01:25:25;;;;;;;13.67;8.50;;;2.60;99.90;;;;;;5010147;28;20217;-62
2022/11/20 01:27:51;;;;;;;16.23;8.63;;;2.30;99.90;;;;;;5016916;28;20619;-62
2022/11/20 01:30:18;;;;;;;13.77;9.47;;;2.30;99.90;;;;;;5018399;28;20325;-63
2022/11/20 01:32:45;;;;;;;12.57;8.57;;;2.30;99.90;;;;;;5027889;28;20941;-62
2022/11/20 01:35:12;;;;;;;11.33;8.03;;;2.30;99.90;;;;;;5012287;28;20238;-62
2022/11/20 01:37:39;;;;;;;12.10;8.03;;;2.30;99.90;;;;;;5009371;28;20204;-62
2022/11/20 01:40:07;;;;;;;13.73;8.80;;;2.30;99.90;;;;;;4988521;28;21816;-62
2022/11/20 01:45:58;;;;;;;15.00;7.60;;;2.20;99.90;;;;;;5023498;28;20226;-62
2022/11/20 01:48:30;;;;;;;12.93;8.50;;;2.20;99.90;;;;;;5025650;28;20700;-62
2022/11/20 01:50:58;;;;;;;11.17;7.70;;;2.10;99.90;;;;;;5014346;28;20220;-62
2022/11/20 01:53:29;;;;;;;13.17;8.10;;;2.10;99.90;;;;;;5016563;28;20212;-62
2022/11/20 01:55:59;;;;;;;14.87;8.63;;;2.10;99.90;;;;;;4981669;28;20305;-62
2022/11/20 01:58:32;;;;;;;11.20;7.70;;;2.10;99.90;;;;;;5027590;28;20227;-62
2022/11/20 02:00:59;;;;;;;15.67;7.83;;;2.10;99.90;;;;;;5018751;28;20207;-62
2022/11/20 02:03:28;;;;;;;11.87;8.00;;;2.10;99.90;;;;;;5024067;28;20712;-62
2022/11/20 02:06:02;;;;;;;11.13;7.43;;;2.10;99.90;;;;;;5025268;28;20209;-62
2022/11/20 02:08:29;;;;;;;15.63;8.17;;;2.10;99.90;;;;;;5008866;28;20364;-62
2022/11/20 02:10:56;;;;;;;11.70;7.40;;;2.10;99.90;;;;;;5025188;28;20208;-61
2022/11/20 02:16:12;;;;;;;11.70;8.17;;;2.10;99.90;;;;;;5007501;28;20260;-62
2022/11/20 02:18:39;;;;;;;14.50;7.23;;;2.00;99.90;;;;;;5021603;28;20228;-61
2022/11/20 02:21:10;;;;;;;15.47;8.13;;;2.20;99.90;;;;;;5020557;28;20744;-62
2022/11/20 02:23:40;;;;;;;9.83;6.83;;;2.10;99.90;;;;;;5010349;28;20211;-61
2022/11/20 02:26:13;;;;;;;13.13;8.03;;;2.10;99.90;;;;;;5013400;28;20200;-63
2022/11/20 02:28:40;;;;;;;13.00;7.73;;;2.10;99.90;;;;;;5027884;28;20230;-62
2022/11/20 02:31:07;;;;;;;13.33;8.03;;;2.10;99.90;;;;;;5017379;28;20668;-62
2022/11/20 02:33:34;;;;;;;14.37;7.83;;;2.10;99.90;;;;;;5031209;28;20198;-62
2022/11/20 02:36:01;;;;;;;13.80;7.17;;;3.00;99.90;;;;;;5025817;28;20224;-62
2022/11/20 02:38:28;;;;;;;12.50;7.97;;;2.10;99.90;;;;;;5010450;28;20232;-62
2022/11/20 02:40:54;;;;;;;10.43;7.10;;;2.00;99.90;;;;;;5027926;28;20208;-62
2022/11/20 02:43:23;;;;;;;12.63;7.33;;;2.00;99.90;;;;;;5004025;28;20211;-63
2022/11/20 02:45:50;;;;;;;11.50;7.60;;;2.00;99.90;;;;;;5004369;28;20209;-62
2022/11/20 02:48:17;;;;;;;12.83;7.43;;;2.10;99.90;;;;;;5030104;28;20204;-62
2022/11/20 02:50:44;;;;;;;11.93;7.40;;;2.10;99.90;;;;;;5017499;28;20212;-62
2022/11/20 02:53:10;;;;;;;12.53;7.10;;;2.10;99.90;;;;;;5017696;28;20205;-62
2022/11/20 02:55:37;;;;;;;16.40;7.23;;;2.10;99.90;;;;;;5014059;28;20197;-62
2022/11/20 02:58:04;;;;;;;11.83;7.80;;;2.10;99.90;;;;;;5005975;28;20244;-62
2022/11/20 03:00:33;;;;;;;10.63;7.43;;;2.10;99.90;;;;;;5019005;28;20197;-62
2022/11/20 03:03:00;;;;;;;10.77;7.33;;;2.10;99.90;;;;;;5030053;28;20204;-62
2022/11/20 03:05:27;;;;;;;11.87;7.27;;;2.10;99.90;;;;;;5025834;28;20589;-62
2022/11/20 03:07:53;;;;;;;10.10;7.07;;;2.10;99.90;;;;;;5013356;28;20209;-62
2022/11/20 03:10:20;;;;;;;12.20;7.13;;;2.10;99.90;;;;;;5008246;28;20215;-62
2022/11/20 03:12:47;;;;;;;14.23;8.23;;;2.10;99.90;;;;;;5029815;28;20217;-62
2022/11/20 03:15:14;;;;;;;11.23;6.83;;;2.20;99.90;;;;;;5000239;28;20237;-64
2022/11/20 03:17:42;;;;;;;13.20;7.33;;;2.10;99.90;;;;;;5017379;28;20204;-62
2022/11/20 03:20:10;;;;;;;10.20;6.13;;;2.10;99.90;;;;;;5026506;28;20681;-62
2022/11/20 03:22:37;;;;;;;12.93;7.63;;;2.20;99.90;;;;;;5016685;28;20619;-62
2022/11/20 03:25:04;;;;;;;11.73;7.03;;;2.10;99.90;;;;;;5013344;28;20300;-62
2022/11/20 03:27:34;;;;;;;10.70;7.00;;;2.10;99.90;;;;;;5025943;28;20209;-62
2022/11/20 03:30:01;;;;;;;12.87;7.00;;;2.10;99.90;;;;;;5007318;28;20279;-62
2022/11/20 03:32:28;;;;;;;10.10;7.03;;;2.20;99.90;;;;;;5018727;28;20709;-63
2022/11/20 03:34:56;;;;;;;11.33;6.80;;;2.10;99.90;;;;;;5028745;28;20220;-62
2022/11/20 03:37:23;;;;;;;10.30;6.90;;;3.10;99.90;;;;;;5022391;28;20893;-63
2022/11/20 03:39:50;;;;;;;11.33;7.43;;;2.20;99.90;;;;;;5018179;28;20610;-62
2022/11/20 03:44:57;;;;;;;9.40;6.50;;;2.20;99.90;;;;;;5003165;28;20662;-62
2022/11/20 03:47:24;;;;;;;11.60;6.90;;;2.20;99.90;;;;;;5018082;28;20206;-62
2022/11/20 03:49:51;;;;;;;9.03;6.47;;;2.20;99.90;;;;;;5024021;28;20679;-62
2022/11/20 03:52:19;;;;;;;10.63;6.50;;;2.20;99.90;;;;;;5030899;28;20203;-62
2022/11/20 03:54:46;;;;;;;11.10;6.23;;;2.10;99.90;;;;;;5028387;28;20201;-62
2022/11/20 03:57:13;;;;;;;10.63;6.53;;;2.10;99.90;;;;;;5021546;28;20224;-62
2022/11/20 03:59:39;;;;;;;10.17;6.57;;;2.00;99.90;;;;;;4999391;28;20239;-64
2022/11/20 04:02:06;;;;;;;8.47;6.10;;;2.00;99.90;;;;;;5030356;28;20288;-62
2022/11/20 04:04:33;;;;;;;11.20;6.00;;;2.00;99.90;;;;;;5018399;28;20208;-61
2022/11/20 04:07:00;;;;;;;7.97;5.67;;;2.00;99.90;;;;;;5030138;28;20236;-62
2022/11/20 04:09:28;;;;;;;10.47;6.00;;;2.00;99.90;;;;;;5017861;28;20395;-62
2022/11/20 04:11:55;;;;;;;8.83;6.00;;;2.10;99.90;;;;;;5023719;28;20212;-61
2022/11/20 04:14:21;;;;;;;9.30;6.40;;;2.00;99.90;;;;;;4994329;28;20767;-62
2022/11/20 04:16:48;;;;;;;9.63;6.63;;;2.00;99.90;;;;;;5026237;28;20196;-62
2022/11/20 04:19:16;;;;;;;11.33;6.53;;;2.00;99.90;;;;;;5012818;28;20242;-62
2022/11/20 04:21:44;;;;;;;12.07;6.37;;;2.00;99.90;;;;;;5029448;28;21005;-62
2022/11/20 04:24:11;;;;;;;10.60;6.47;;;2.00;99.90;;;;;;5017052;28;20243;-62
2022/11/20 04:26:40;;;;;;;12.03;6.53;;;2.00;99.90;;;;;;5017358;28;20219;-62
2022/11/20 04:29:07;;;;;;;10.23;6.10;;;2.00;99.90;;;;;;5018828;28;20203;-62
2022/11/20 04:31:35;;;;;;;9.53;6.20;;;2.00;99.90;;;;;;4998823;28;20220;-62
2022/11/20 04:34:03;;;;;;;9.70;6.47;;;2.00;99.90;;;;;;5021583;28;20208;-62
2022/11/20 04:36:31;;;;;;;9.13;6.77;;;2.00;99.90;;;;;;5023662;28;20197;-62
2022/11/20 04:38:59;;;;;;;10.33;6.07;;;2.00;99.90;;;;;;5019941;28;20225;-62
2022/11/20 04:41:28;;;;;;;10.50;6.27;;;2.00;99.90;;;;;;5019161;28;20258;-62
2022/11/20 04:44:02;;;;;;;9.07;6.20;;;2.00;99.90;;;;;;5006565;28;20574;-63
2022/11/20 04:46:29;;;;;;;8.50;6.20;;;1.90;99.90;;;;;;4998753;28;23075;-62
2022/11/20 04:48:56;;;;;;;10.33;6.07;;;1.90;99.90;;;;;;5027080;28;20208;-62
2022/11/20 04:51:23;;;;;;;9.73;6.50;;;1.90;99.90;;;;;;5010852;28;21482;-62
2022/11/20 04:53:50;;;;;;;7.43;5.53;;;1.90;99.90;;;;;;5027021;28;21009;-62
2022/11/20 04:56:17;;;;;;;11.60;6.30;;;2.00;99.90;;;;;;5022379;28;20227;-62
2022/11/20 04:58:45;;;;;;;10.33;6.20;;;2.00;99.90;;;;;;5017832;28;20230;-62
2022/11/20 05:01:14;;;;;;;14.27;6.27;;;2.00;99.90;;;;;;5001471;28;20236;-62
2022/11/20 05:03:42;;;;;;;10.33;6.20;;;2.00;99.90;;;;;;5028445;28;20195;-62
2022/11/20 05:06:09;;;;;;;14.33;6.23;;;2.00;99.90;;;;;;5015727;28;20239;-62
2022/11/20 05:08:36;;;;;;;7.50;5.43;;;1.90;99.90;;;;;;5019794;28;20843;-62
2022/11/20 05:11:05;;;;;;;7.33;5.77;;;2.00;99.90;;;;;;5028229;28;20905;-62
2022/11/20 05:13:31;;;;;;;9.40;5.80;;;1.90;99.90;;;;;;5009808;28;20204;-62
2022/11/20 05:16:02;;;;;;;12.57;6.37;;;2.00;99.90;;;;;;5031796;28;20235;-62
2022/11/20 05:18:30;;;;;;;12.33;5.83;;;2.00;99.90;;;;;;5005057;28;20224;-62
2022/11/20 05:20:57;;;;;;;9.23;6.10;;;2.00;99.90;;;;;;5021405;28;20227;-61
2022/11/20 05:23:24;;;;;;;10.43;5.70;;;2.00;99.90;;;;;;5032633;28;20208;-62
2022/11/20 05:25:54;;;;;;;8.73;5.63;;;2.00;99.90;;;;;;5032280;28;20199;-63
2022/11/20 05:28:21;;;;;;;7.90;5.97;;;2.00;99.90;;;;;;5024957;28;20209;-62
2022/11/20 05:30:48;;;;;;;7.63;5.20;;;2.00;99.90;;;;;;5026171;28;20330;-62
2022/11/20 05:33:14;;;;;;;12.10;5.70;;;2.00;99.90;;;;;;5004118;28;20227;-62
2022/11/20 05:35:43;;;;;;;9.37;5.37;;;2.00;99.90;;;;;;5027059;28;20200;-62
2022/11/20 05:38:09;;;;;;;7.33;5.33;;;2.00;99.90;;;;;;5027714;28;20202;-62
2022/11/20 05:40:36;;;;;;;9.13;5.53;;;2.00;99.90;;;;;;5031179;28;20238;-62
2022/11/20 05:43:03;;;;;;;9.43;5.80;;;2.10;99.90;;;;;;5030690;28;20200;-62
2022/11/20 05:45:30;;;;;;;7.00;5.10;;;2.00;99.90;;;;;;5024592;28;20201;-62
2022/11/20 05:47:59;;;;;;;8.37;5.10;;;2.00;99.90;;;;;;5004150;28;20217;-61
2022/11/20 05:50:26;;;;;;;6.67;4.80;;;2.00;99.90;;;;;;5031813;28;20202;-62
2022/11/20 05:52:54;;;;;;;5.53;4.33;;;2.00;99.90;;;;;;5018802;28;21164;-62
2022/11/20 05:55:21;;;;;;;8.57;5.40;;;2.00;99.90;;;;;;5032469;28;20198;-62
2022/11/20 05:57:48;;;;;;;6.33;4.20;;;2.00;99.90;;;;;;5033452;28;20574;-62
2022/11/20 06:00:16;;;;;;;7.20;5.10;;;2.00;99.90;;;;;;5015491;28;20800;-62
2022/11/20 06:02:42;;;;;;;6.97;5.23;;;2.00;99.90;;;;;;5024450;28;20332;-62
2022/11/20 06:05:09;;;;;;;5.80;4.60;;;2.00;99.90;;;;;;5000223;28;20213;-62
2022/11/20 06:07:36;;;;;;;7.53;4.37;;;2.20;99.90;;;;;;5014019;28;20798;-62
2022/11/20 06:10:05;;;;;;;13.00;5.23;;;2.00;99.90;;;;;;5027650;28;20198;-62
2022/11/20 06:12:33;;;;;;;6.57;5.40;;;2.00;99.90;;;;;;5015421;28;20218;-62
2022/11/20 06:15:00;;;;;;;9.10;4.90;;;2.00;99.90;;;;;;5019616;28;21218;-62
2022/11/20 06:17:27;;;;;;;6.80;4.87;;;2.00;99.90;;;;;;5018037;28;20934;-63
2022/11/20 06:19:54;;;;;;;8.20;5.53;;;2.10;99.90;;;;;;5005946;28;20237;-62
2022/11/20 06:22:21;;;;;;;11.97;5.27;;;2.10;99.90;;;;;;5020653;28;20208;-62
2022/11/20 06:24:48;;;;;;;9.43;5.37;;;2.10;99.90;;;;;;5020342;28;20203;-62
2022/11/20 06:27:16;;;;;;;8.93;5.07;;;2.00;99.90;;;;;;5028471;28;20207;-61
2022/11/20 06:29:43;;;;;;;8.83;4.77;;;2.00;99.90;;;;;;5022690;28;20198;-62
2022/11/20 06:32:10;;;;;;;7.40;5.03;;;2.00;99.90;;;;;;5017236;28;20212;-62
2022/11/20 06:34:37;;;;;;;6.03;5.07;;;2.10;99.90;;;;;;5006871;28;20588;-62
2022/11/20 06:37:04;;;;;;;8.00;4.40;;;2.10;99.90;;;;;;5013475;28;20218;-62
2022/11/20 06:39:31;;;;;;;9.27;4.80;;;2.10;99.90;;;;;;5018852;28;20239;-62
2022/11/20 06:41:58;;;;;;;10.47;4.20;;;2.00;99.90;;;;;;5022043;28;20220;-61
2022/11/20 06:44:26;;;;;;;8.03;4.63;;;1.90;99.90;;;;;;5027937;28;20200;-63
2022/11/20 06:46:53;;;;;;;7.67;4.53;;;1.80;99.90;;;;;;5021664;28;20220;-62
2022/11/20 06:49:20;;;;;;;5.67;4.23;;;1.80;99.90;;;;;;5000168;28;21028;-62
2022/11/20 06:51:47;;;;;;;12.03;4.70;;;1.80;99.90;;;;;;5016434;28;21722;-62
2022/11/20 06:54:13;;;;;;;9.83;4.67;;;1.70;99.90;;;;;;5029379;28;21213;-62
2022/11/20 06:56:40;;;;;;;6.97;4.53;;;1.70;99.90;;;;;;5004912;28;21105;-61
2022/11/20 06:59:08;;;;;;;7.97;4.53;;;1.70;99.90;;;;;;5024555;28;20199;-62
2022/11/20 07:01:36;;;;;;;5.90;4.50;;;1.80;99.90;;;;;;5013507;28;20208;-62
2022/11/20 07:04:03;;;;;;;8.10;4.30;;;1.80;99.90;;;;;;5005276;28;20217;-62
2022/11/20 07:06:30;;;;;;;7.33;4.87;;;1.80;99.90;;;;;;5000913;28;20299;-62
2022/11/20 07:08:57;;;;;;;9.87;5.00;;;1.80;99.90;;;;;;5008358;28;20225;-62
2022/11/20 07:11:25;;;;;;;7.17;4.73;;;1.80;99.90;;;;;;4974300;28;20712;-62
2022/11/20 07:13:51;;;;;;;6.07;4.43;;;1.80;99.90;;;;;;5020160;28;20212;-62
2022/11/20 07:16:18;;;;;;;6.70;4.60;;;1.90;99.90;;;;;;4996824;28;20205;-63
2022/11/20 07:18:47;;;;;;;6.07;4.13;;;1.90;99.90;;;;;;5009637;28;20221;-61
2022/11/20 07:21:14;;;;;;;7.57;4.47;;;1.90;99.90;;;;;;4992317;28;20233;-61
2022/11/20 07:23:40;;;;;;;6.73;4.80;;;1.90;99.90;;;;;;5029951;28;20224;-62
2022/11/20 07:26:09;;;;;;;7.83;4.80;;;1.90;99.90;;;;;;5017163;28;20238;-62
2022/11/20 07:28:37;;;;;;;6.20;4.07;;;1.90;99.90;;;;;;5011241;28;20220;-62
2022/11/20 07:31:06;;;;;;;8.10;4.27;;;1.90;99.90;;;;;;5021794;28;20219;-62
2022/11/20 07:33:33;;;;;;;6.27;4.30;;;1.90;99.90;;;;;;5010209;28;20302;-61
2022/11/20 07:36:02;;;;;;;5.93;3.63;;;1.80;99.90;;;;;;4984637;28;20220;-61
2022/11/20 07:38:29;;;;;;;6.10;4.20;;;1.80;99.90;;;;;;5025729;28;20208;-62
2022/11/20 07:40:57;;;;;;;5.90;4.27;;;1.80;99.90;;;;;;5004570;28;20232;-62
2022/11/20 07:43:24;;;;;;;5.77;4.20;;;1.80;99.90;;;;;;5016719;28;20296;-62
2022/11/20 07:45:51;;;;;;;6.23;4.07;;;1.90;99.90;;;;;;5019875;28;20933;-61
2022/11/20 07:48:18;;;;;;;5.47;4.37;;;1.90;99.90;;;;;;5017722;28;20220;-61
2022/11/20 07:50:45;;;;;;;7.40;4.53;;;1.90;99.90;;;;;;4989469;28;21133;-62
2022/11/20 07:53:16;;;;;;;6.80;4.67;;;2.00;99.90;;;;;;5022404;28;20233;-62
2022/11/20 07:55:43;;;;;;;11.70;4.07;;;2.00;99.90;;;;;;5023804;28;20232;-61
2022/11/20 07:58:10;;;;;;;6.03;4.17;;;2.10;99.90;;;;;;5015307;28;20249;-61
2022/11/20 08:00:37;;;;;;;6.60;4.20;;;2.10;99.90;;;;;;4989946;28;20308;-62
2022/11/20 08:03:05;;;;;;;5.97;4.13;;;2.20;99.90;;;;;;5001199;28;20273;-62
2022/11/20 08:05:31;;;;;;;7.93;4.20;;;2.20;99.90;;;;;;5000170;28;20208;-62
2022/11/20 08:07:58;;;;;;;6.63;4.80;;;2.20;99.90;;;;;;4986658;28;20213;-62
2022/11/20 08:10:27;;;;;;;8.57;4.47;;;2.10;99.90;;;;;;5022645;28;20223;-63
2022/11/20 08:15:39;;;;;;;6.57;4.07;;;2.20;99.90;;;;;;5013633;28;20311;-62
2022/11/20 08:18:08;;;;;;;9.63;4.30;;;2.20;99.90;;;;;;5011326;28;20796;-62
2022/11/20 08:20:36;;;;;;;6.03;4.20;;;2.20;99.90;;;;;;4982661;28;20356;-62
2022/11/20 08:23:05;;;;;;;6.43;3.93;;;2.20;99.90;;;;;;4976953;28;20726;-62
2022/11/20 08:25:35;;;;;;;6.27;3.97;;;2.10;99.90;;;;;;5018571;22;21390;-61
2022/11/20 08:28:03;;;;;;;9.37;4.40;;;2.20;99.90;;;;;;5016346;28;20224;-62
2022/11/20 08:30:30;;;;;;;8.30;4.57;;;2.20;99.90;;;;;;5024583;28;20318;-62
2022/11/20 08:33:02;;;;;;;6.77;4.10;;;2.30;99.90;;;;;;5034874;28;20226;-62
2022/11/20 08:35:29;;;;;;;7.57;4.50;;;2.00;99.90;;;;;;5015828;28;20225;-62
2022/11/20 08:37:56;;;;;;;6.93;4.57;;;2.20;99.90;;;;;;5002100;28;20231;-62
2022/11/20 08:40:22;;;;;;;7.10;4.33;;;2.20;99.90;;;;;;5027643;28;20953;-62
2022/11/20 08:42:52;;;;;;;8.53;4.57;;;2.20;99.90;;;;;;5018956;28;20223;-62
2022/11/20 08:45:19;;;;;;;7.90;5.00;;;2.20;99.90;;;;;;5031247;28;20267;-61
2022/11/20 08:47:47;;;;;;;8.23;4.93;;;2.20;99.90;;;;;;5029657;28;21155;-62
2022/11/20 08:50:16;;;;;;;10.67;4.97;;;2.10;99.90;;;;;;5032242;28;20220;-62
2022/11/20 08:52:43;;;;;;;9.03;5.70;;;2.10;99.90;;;;;;5032423;28;20196;-62
2022/11/20 08:55:10;;;;;;;6.93;4.57;;;2.10;99.90;;;;;;5016814;28;21520;-62
2022/11/20 08:57:38;;;;;;;7.10;4.77;;;2.10;99.90;;;;;;5036772;28;20693;-62
2022/11/20 09:00:08;;;;;;;9.40;5.43;;;2.10;99.90;;;;;;5020605;28;20231;-62
2022/11/20 09:02:35;;;;;;;7.07;4.77;;;2.00;99.90;;;;;;5015401;28;20203;-62
2022/11/20 09:05:03;;;;;;;8.70;5.40;;;2.00;99.90;;;;;;5007269;28;20222;-62
2022/11/20 09:07:30;;;;;;;11.00;5.87;;;2.00;99.90;;;;;;5019789;28;20215;-63
2022/11/20 09:09:57;;;;;;;7.40;5.00;;;1.90;99.90;;;;;;4999178;28;20234;-62
2022/11/20 09:12:24;;;;;;;6.57;4.50;;;1.80;99.90;;;;;;5013110;28;20229;-62
2022/11/20 09:14:51;;;;;;;7.37;4.63;;;1.70;99.90;;;;;;5032400;28;20676;-61
2022/11/20 09:17:20;;;;;;;7.47;4.83;;;1.60;99.90;;;;;;5040796;28;20222;-62
2022/11/20 09:19:48;;;;;;;6.57;4.67;;;1.70;99.90;;;;;;5024686;28;23954;-62
2022/11/20 09:22:15;;;;;;;7.33;4.77;;;1.70;99.90;;;;;;5019841;28;20231;-62
2022/11/20 09:24:43;;;;;;;6.90;4.63;;;1.70;99.90;;;;;;4987085;28;21894;-62
2022/11/20 09:27:10;;;;;;;7.30;4.97;;;1.80;99.90;;;;;;5016412;28;20268;-62
2022/11/20 09:29:37;;;;;;;8.30;5.03;;;1.70;99.90;;;;;;5024369;28;20226;-63
2022/11/20 09:32:04;;;;;;;8.57;5.60;;;1.70;99.90;;;;;;5021081;28;20225;-62
2022/11/20 09:34:32;;;;;;;10.30;5.37;;;1.80;99.90;;;;;;5039885;28;20702;-62
2022/11/20 09:36:59;;;;;;;7.43;5.17;;;1.80;99.90;;;;;;5022784;28;21048;-63
2022/11/20 09:39:27;;;;;;;9.43;5.73;;;2.00;99.90;;;;;;4997553;28;20208;-63
2022/11/20 09:42:17;;;;;;;9.73;5.00;;;2.00;99.90;;;;;;5034639;28;20237;-62
2022/11/20 09:45:02;;;;;;;9.87;6.23;;;2.00;99.90;;;;;;5037435;28;21463;-62
2022/11/20 09:47:40;;;;;;;7.73;5.27;;;2.00;99.90;;;;;;5029865;28;20210;-62
2022/11/20 09:50:21;;;;;;;9.80;5.83;;;2.10;99.90;;;;;;5037143;28;20208;-62
2022/11/20 09:53:00;;;;;;;7.43;5.20;;;2.10;99.90;;;;;;5037536;28;20227;-61
2022/11/20 09:55:30;;;;;;;10.67;6.10;;;2.10;99.90;;;;;;4985895;28;20220;-62
2022/11/20 09:57:58;;;;;;;9.37;5.87;;;2.00;99.90;;;;;;5030420;28;20232;-62
2022/11/20 10:00:25;;;;;;;6.73;5.10;;;2.10;99.90;;;;;;5027989;28;20236;-62
2022/11/20 10:03:00;;;;;;;7.90;5.37;;;2.20;99.90;;;;;;5024113;28;20234;-62
2022/11/20 10:05:32;;;;;;;15.17;6.30;;;2.10;99.90;;;;;;5008680;28;20228;-62
2022/11/20 10:08:15;;;;;;;8.23;5.87;;;2.10;99.90;;;;;;5006156;28;20251;-62
2022/11/20 10:10:44;;;;;;;8.00;5.93;;;2.10;99.90;;;;;;4995331;28;20299;-61
2022/11/20 10:13:25;;;;;;;8.97;6.00;;;2.20;99.90;;;;;;5027230;28;20228;-62
2022/11/20 10:16:01;;;;;;;8.83;5.93;;;2.20;99.90;;;;;;5043493;28;21376;-62
2022/11/20 10:18:41;;;;;;;12.73;7.33;;;2.20;99.90;;;;;;5019479;28;20591;-61
2022/11/20 10:21:17;;;;;;;10.33;6.70;;;2.10;99.90;;;;;;5020416;28;20227;-62
2022/11/20 10:24:03;;;;;;;9.27;6.50;;;2.20;99.90;;;;;;5010892;28;20205;-62
2022/11/20 10:26:38;;;;;;;9.43;6.43;;;2.20;99.90;;;;;;4989327;28;20811;-63
2022/11/20 10:29:12;;;;;;;19.20;8.23;;;2.10;99.90;;;;;;5027221;28;20225;-63
2022/11/20 10:31:41;;;;;;;12.07;7.90;;;2.10;99.90;;;;;;5014379;28;20207;-62
2022/11/20 10:34:19;;;;;;;13.93;8.10;;;2.10;99.90;;;;;;5028035;28;20209;-62
2022/11/20 10:36:51;;;;;;;14.00;8.77;;;2.10;99.90;;;;;;5013952;28;20217;-63
2022/11/20 10:39:23;;;;;;;12.97;8.03;;;2.10;99.90;;;;;;5005665;28;20262;-62
2022/11/20 10:41:54;;;;;;;12.00;7.80;;;2.10;99.90;;;;;;4993837;28;20966;-62
2022/11/20 10:47:05;;;;;;;10.93;7.17;;;2.30;99.90;;;;;;5025246;28;20595;-62
2022/11/20 10:49:34;;;;;;;11.60;7.73;;;2.40;99.90;;;;;;5021299;28;20246;-63
2022/11/20 10:52:10;;;;;;;11.13;7.33;;;2.40;99.90;;;;;;5022578;28;20226;-62
2022/11/20 10:54:44;;;;;;;11.03;7.20;;;2.50;99.90;;;;;;5011322;28;21143;-62
2022/11/20 10:57:23;;;;;;;11.80;7.53;;;2.50;99.90;;;;;;4993203;28;20242;-63
2022/11/20 11:00:06;;;;;;;12.33;7.27;;;2.60;99.90;;;;;;5022984;28;20217;-63
2022/11/20 11:02:40;;;;;;;11.10;7.00;;;2.50;99.90;;;;;;5018638;28;20258;-62
2022/11/20 11:05:18;;;;;;;13.87;7.47;;;2.60;99.90;;;;;;5028140;28;21565;-62
2022/11/20 11:07:49;;;;;;;12.93;7.97;;;2.70;99.90;;;;;;5009471;28;20224;-63
2022/11/20 11:10:19;;;;;;;11.10;7.37;;;2.70;99.90;;;;;;5031137;28;20229;-62
2022/11/20 11:12:48;;;;;;;12.77;7.57;;;2.80;99.90;;;;;;4992074;28;20251;-63
2022/11/20 11:15:26;;;;;;;15.03;7.47;;;2.80;99.90;;;;;;5024146;28;20257;-62
2022/11/20 11:17:53;;;;;;;12.30;8.33;;;2.80;99.90;;;;;;5032964;28;20230;-62
2022/11/20 11:20:22;;;;;;;11.47;7.60;;;2.80;99.90;;;;;;5027097;28;21060;-62
2022/11/20 11:22:52;;;;;;;12.13;7.83;;;2.80;99.90;;;;;;5005734;28;20220;-62
2022/11/20 11:25:29;;;;;;;13.63;7.67;;;2.70;99.90;;;;;;5038848;28;20311;-62
2022/11/20 11:27:58;;;;;;;12.17;7.93;;;2.70;99.90;;;;;;4989810;28;20222;-62
2022/11/20 11:30:28;;;;;;;14.53;8.63;;;2.70;99.90;;;;;;5030321;28;20242;-62
2022/11/20 11:33:06;;;;;;;10.60;7.17;;;2.70;99.90;;;;;;5003573;28;20231;-62
2022/11/20 11:35:33;;;;;;;12.30;7.37;;;2.70;99.90;;;;;;5007185;28;20237;-62
2022/11/20 11:38:07;;;;;;;11.33;7.00;;;2.70;99.90;;;;;;5029391;28;20224;-62
2022/11/20 11:40:38;;;;;;;9.20;6.47;;;2.70;99.90;;;;;;5029928;28;20882;-62
2022/11/20 11:45:04;;;;;;;10.93;7.10;;;2.70;99.90;;;;;;4998433;28;20886;-63
2022/11/20 11:45:55;;;;;;;11.93;7.50;;;2.70;99.90;;;;;;5030556;28;20255;-62
2022/11/20 11:48:23;;;;;;;8.90;7.13;;;2.70;99.90;;;;;;5029559;28;20301;-64
2022/11/20 11:50:51;;;;;;;11.80;7.43;;;2.80;99.90;;;;;;5022224;28;20728;-62
2022/11/20 11:53:22;;;;;;;9.63;6.50;;;2.80;99.90;;;;;;5026048;28;20280;-62
2022/11/20 11:55:55;;;;;;;10.53;6.93;;;2.80;99.90;;;;;;5022081;28;20289;-62
2022/11/20 11:58:44;;;;;;;11.33;7.10;;;2.80;99.90;;;;;;4996603;28;20231;-62
2022/11/20 12:01:27;;;;;;;9.00;6.57;;;2.80;99.90;;;;;;5027948;28;20239;-63
2022/11/20 12:04:03;;;;;;;9.67;6.87;;;2.80;99.90;;;;;;5014576;28;20698;-63
2022/11/20 12:06:32;;;;;;;12.63;6.67;;;2.80;99.90;;;;;;5020901;28;20204;-63
2022/11/20 12:09:03;;;;;;;10.00;6.57;;;2.90;99.90;;;;;;4988386;28;21096;-63
2022/11/20 12:11:35;;;;;;;8.00;6.40;;;3.00;99.90;;;;;;5036305;28;20225;-63
2022/11/20 12:14:10;;;;;;;8.77;6.00;;;3.00;99.90;;;;;;4999760;28;20232;-62
2022/11/20 12:16:39;;;;;;;12.03;7.00;;;3.00;99.90;;;;;;5020265;28;20221;-62
2022/11/20 12:19:11;;;;;;;9.63;6.60;;;3.00;99.90;;;;;;5028786;28;20222;-61
2022/11/20 12:21:48;;;;;;;10.37;7.17;;;3.00;99.90;;;;;;5008447;28;20251;-62
2022/11/20 12:24:45;;;;;;;11.93;6.83;;;3.00;99.90;;;;;;5016585;28;21290;-63
2022/11/20 12:27:37;;;;;;;12.63;7.43;;;3.20;99.90;;;;;;5020033;28;20224;-62
2022/11/20 12:30:09;;;;;;;9.70;6.53;;;3.20;99.90;;;;;;5007991;28;20229;-63
2022/11/20 12:33:04;;;;;;;8.77;6.57;;;3.00;99.90;;;;;;5022052;28;20232;-63
2022/11/20 12:35:56;;;;;;;10.53;6.33;;;3.00;99.90;;;;;;5018224;28;20601;-66
2022/11/20 12:39:02;;;;;;;15.20;8.70;;;3.00;99.90;;;;;;5030385;28;20228;-63
2022/11/20 12:45:10;;;;;;;19.17;11.27;;;3.00;99.90;;;;;;4989563;28;20231;-63
2022/11/20 12:48:00;;;;;;;15.03;9.03;;;3.00;99.90;;;;;;5015004;28;20657;-62
2022/11/20 12:50:38;;;;;;;12.27;8.10;;;3.00;99.90;;;;;;5028564;28;20644;-62
2022/11/20 12:53:10;;;;;;;14.73;9.47;;;3.10;99.90;;;;;;5028958;28;20216;-63
2022/11/20 12:55:50;;;;;;;22.10;12.97;;;3.00;99.90;;;;;;5006449;28;20216;-62
2022/11/20 12:58:27;;;;;;;19.20;10.63;;;3.00;99.90;;;;;;5026892;28;20235;-62
2022/11/20 13:01:01;;;;;;;15.43;9.53;;;3.00;99.90;;;;;;4997282;28;20228;-62
2022/11/20 13:03:44;;;;;;;13.50;7.47;;;3.10;99.90;;;;;;5019503;28;20228;-62
2022/11/20 13:06:16;;;;;;;9.63;7.03;;;3.00;99.90;;;;;;5041219;28;20225;-62
2022/11/20 13:08:46;;;;;;;10.63;6.67;;;2.90;99.90;;;;;;5014218;28;20775;-63
2022/11/20 13:11:19;;;;;;;10.23;6.70;;;2.90;99.90;;;;;;5025402;28;20242;-64
2022/11/20 13:14:20;;;;;;;12.37;7.83;;;2.90;99.90;;;;;;5010787;28;20228;-62
2022/11/20 13:16:53;;;;;;;8.03;5.70;;;2.90;99.90;;;;;;5000175;28;20223;-63
2022/11/20 13:19:20;;;;;;;9.53;7.03;;;2.90;99.90;;;;;;5021455;28;20206;-62
2022/11/20 13:21:50;;;;;;;13.03;8.27;;;2.90;99.90;;;;;;5032517;28;20224;-62
2022/11/20 13:24:26;;;;;;;13.97;7.87;;;2.90;99.90;;;;;;5034026;28;20320;-62